Time;durP1;ratioP1;P1;durP2;ratioP2;P2;SDS_P1;SDS_P2;PMS_P1;PMS_P2;Temp;Humidity;BMP_temperature;BMP_pressure;BME280_temperature;BME280_humidity;BME280_pressure;Samples;Min_cycle;Max_cycle;Signal;HPM_P1;HPM_P2
2023/07/15 00:02:02;;;;;;;33.78;17.05;;;;;;;;;;5057794;28;20032;-73
2023/07/15 00:04:29;;;;;;;31.38;14.55;;;;;;;;;;5059369;28;20082;-73
2023/07/15 00:06:54;;;;;;;26.98;12.43;;;;;;;;;;5059585;28;20013;-75
2023/07/15 00:09:26;;;;;;;8.23;6.70;;;;;;;;;;5058234;28;20032;-73
2023/07/15 00:11:51;;;;;;;12.55;7.50;;;;;;;;;;5053903;28;20059;-74
2023/07/15 00:14:18;;;;;;;19.23;10.35;;;;;;;;;;5052817;28;20110;-74
2023/07/15 00:16:44;;;;;;;9.68;6.45;;;;;;;;;;5049077;28;20029;-74
2023/07/15 00:19:09;;;;;;;10.23;6.00;;;;;;;;;;5059170;28;20036;-77
2023/07/15 00:21:35;;;;;;;5.45;4.70;;;;;;;;;;5049685;28;20484;-76
2023/07/15 00:24:01;;;;;;;8.93;5.05;;;;;;;;;;5057200;28;20070;-74
2023/07/15 00:26:34;;;;;;;10.95;6.03;;;;;;;;;;5057441;28;20032;-72
2023/07/15 00:29:03;;;;;;;6.90;6.00;;;;;;;;;;5053797;28;20008;-72
2023/07/15 00:31:29;;;;;;;5.75;5.00;;;;;;;;;;5049226;28;20024;-73
2023/07/15 00:33:55;;;;;;;6.57;5.43;;;;;;;;;;5050384;28;20371;-73
2023/07/15 00:36:20;;;;;;;7.47;5.80;;;;;;;;;;5058926;28;20033;-73
2023/07/15 00:38:45;;;;;;;21.27;11.73;;;;;;;;;;5056462;28;20457;-73
2023/07/15 00:41:25;;;;;;;15.98;9.52;;;;;;;;;;5058536;28;20135;-73
2023/07/15 00:43:58;;;;;;;15.85;10.40;;;;;;;;;;5058669;28;20032;-72
2023/07/15 00:46:26;;;;;;;11.63;8.55;;;;;;;;;;5050304;28;20325;-74
2023/07/15 00:48:56;;;;;;;15.07;9.57;;;;;;;;;;5055216;28;20044;-72
2023/07/15 00:51:22;;;;;;;15.18;11.80;;;;;;;;;;5047962;28;20035;-71
2023/07/15 00:53:48;;;;;;;12.57;7.47;;;;;;;;;;5052656;28;20040;-72
2023/07/15 00:56:14;;;;;;;6.20;5.45;;;;;;;;;;5056790;28;20028;-73
2023/07/15 00:58:39;;;;;;;6.90;5.55;;;;;;;;;;5057157;28;20032;-75
2023/07/15 01:01:06;;;;;;;6.63;6.03;;;;;;;;;;5047331;28;20020;-73
2023/07/15 01:03:32;;;;;;;12.68;6.63;;;;;;;;;;5048180;28;20075;-76
2023/07/15 01:05:57;;;;;;;5.15;4.63;;;;;;;;;;5056585;28;20032;-73
2023/07/15 01:08:23;;;;;;;6.90;4.90;;;;;;;;;;5054144;28;20044;-73
2023/07/15 01:10:48;;;;;;;4.78;4.22;;;;;;;;;;5057332;28;20033;-74
2023/07/15 01:13:14;;;;;;;6.57;5.88;;;;;;;;;;5058538;28;20097;-74
2023/07/15 01:15:39;;;;;;;9.77;6.97;;;;;;;;;;5053960;28;20440;-75
2023/07/15 01:18:04;;;;;;;10.02;7.15;;;;;;;;;;5063616;28;20039;-74
2023/07/15 01:20:32;;;;;;;6.90;6.22;;;;;;;;;;5067796;28;20036;-75
2023/07/15 01:22:57;;;;;;;6.55;5.95;;;;;;;;;;5057520;28;20487;-74
2023/07/15 01:25:23;;;;;;;7.40;6.40;;;;;;;;;;5057475;28;20166;-75
2023/07/15 01:27:48;;;;;;;7.85;6.53;;;;;;;;;;5056758;28;20078;-75
2023/07/15 01:30:15;;;;;;;7.50;6.18;;;;;;;;;;5048439;28;20021;-75
2023/07/15 01:32:40;;;;;;;15.63;8.85;;;;;;;;;;5058362;28;20067;-74
2023/07/15 01:35:06;;;;;;;18.50;10.88;;;;;;;;;;5048085;28;20436;-74
2023/07/15 01:37:31;;;;;;;8.30;6.65;;;;;;;;;;5057097;28;20036;-75
2023/07/15 01:39:56;;;;;;;8.30;5.90;;;;;;;;;;5058771;28;20131;-74
2023/07/15 01:42:22;;;;;;;6.00;5.25;;;;;;;;;;5056942;28;20032;-76
2023/07/15 01:44:47;;;;;;;6.25;5.07;;;;;;;;;;5053135;28;20048;-75
2023/07/15 01:47:12;;;;;;;6.88;5.63;;;;;;;;;;5058174;28;20036;-74
2023/07/15 01:49:38;;;;;;;5.90;5.03;;;;;;;;;;5049290;28;20032;-75
2023/07/15 01:52:03;;;;;;;5.60;5.03;;;;;;;;;;5055467;28;20324;-76
2023/07/15 01:54:29;;;;;;;5.75;5.25;;;;;;;;;;5052732;28;20021;-75
2023/07/15 01:56:54;;;;;;;6.60;6.00;;;;;;;;;;5052671;28;20086;-76
2023/07/15 01:59:19;;;;;;;8.85;5.75;;;;;;;;;;5049828;28;20379;-75
2023/07/15 02:01:45;;;;;;;10.18;5.75;;;;;;;;;;5056563;28;20110;-75
2023/07/15 02:04:10;;;;;;;6.80;5.30;;;;;;;;;;5058526;28;20133;-76
2023/07/15 02:06:36;;;;;;;5.95;5.15;;;;;;;;;;5058155;28;20112;-75
2023/07/15 02:09:01;;;;;;;5.43;5.00;;;;;;;;;;5053704;28;20037;-74
2023/07/15 02:11:26;;;;;;;10.82;6.22;;;;;;;;;;5066043;28;20029;-74
2023/07/15 02:13:52;;;;;;;20.45;10.50;;;;;;;;;;5052718;28;20032;-74
2023/07/15 02:16:17;;;;;;;30.88;12.98;;;;;;;;;;5049587;28;20036;-74
2023/07/15 02:18:42;;;;;;;27.92;12.50;;;;;;;;;;5055652;28;20025;-74
2023/07/15 02:21:09;;;;;;;23.60;11.27;;;;;;;;;;5049187;28;20021;-72
2023/07/15 02:23:35;;;;;;;25.05;10.95;;;;;;;;;;5052843;28;20055;-73
2023/07/15 02:26:01;;;;;;;14.65;8.75;;;;;;;;;;5049521;28;20068;-74
2023/07/15 02:28:27;;;;;;;11.70;6.72;;;;;;;;;;5057866;28;20071;-74
2023/07/15 02:30:53;;;;;;;10.40;6.30;;;;;;;;;;5051924;28;20453;-74
2023/07/15 02:33:19;;;;;;;9.90;5.22;;;;;;;;;;5055327;28;20042;-73
2023/07/15 02:35:44;;;;;;;6.05;4.40;;;;;;;;;;5050063;28;20024;-74
2023/07/15 02:38:09;;;;;;;6.63;5.15;;;;;;;;;;5054956;28;20064;-73
2023/07/15 02:40:35;;;;;;;6.22;4.85;;;;;;;;;;5049904;28;20043;-74
2023/07/15 02:43:00;;;;;;;6.30;4.75;;;;;;;;;;5055421;28;20028;-74
2023/07/15 02:45:27;;;;;;;5.00;4.60;;;;;;;;;;5055709;28;20888;-74
2023/07/15 02:47:52;;;;;;;8.23;4.80;;;;;;;;;;5057979;28;20020;-74
2023/07/15 02:50:20;;;;;;;5.28;4.35;;;;;;;;;;5047187;28;20036;-75
2023/07/15 02:52:46;;;;;;;6.77;4.67;;;;;;;;;;5047161;28;20032;-75
2023/07/15 02:55:11;;;;;;;6.38;4.45;;;;;;;;;;5046756;28;20310;-74
2023/07/15 02:57:37;;;;;;;5.90;4.72;;;;;;;;;;5054682;28;20071;-75
2023/07/15 03:00:09;;;;;;;7.47;4.47;;;;;;;;;;5059935;28;20039;-75
2023/07/15 03:02:35;;;;;;;5.55;4.95;;;;;;;;;;5056825;28;20024;-74
2023/07/15 03:05:03;;;;;;;7.40;5.00;;;;;;;;;;5055143;28;20028;-74
2023/07/15 03:07:28;;;;;;;6.15;5.10;;;;;;;;;;5047783;28;20032;-74
2023/07/15 03:09:54;;;;;;;9.38;4.85;;;;;;;;;;5047111;28;20892;-75
2023/07/15 03:12:19;;;;;;;7.03;4.90;;;;;;;;;;5071054;28;20047;-75
2023/07/15 03:14:45;;;;;;;15.05;9.32;;;;;;;;;;5046100;28;20096;-75
2023/07/15 03:17:10;;;;;;;8.50;5.82;;;;;;;;;;5047600;28;20028;-76
2023/07/15 03:19:37;;;;;;;5.82;5.07;;;;;;;;;;5048233;28;20024;-75
2023/07/15 03:22:03;;;;;;;7.90;5.03;;;;;;;;;;5048737;28;20085;-74
2023/07/15 03:24:29;;;;;;;5.97;4.95;;;;;;;;;;5059472;28;20051;-75
2023/07/15 03:26:54;;;;;;;7.82;5.30;;;;;;;;;;5058485;28;20784;-74
2023/07/15 03:29:20;;;;;;;6.20;4.80;;;;;;;;;;5050339;28;20440;-75
2023/07/15 03:31:45;;;;;;;6.20;5.60;;;;;;;;;;5051970;28;20032;-75
2023/07/15 03:34:11;;;;;;;6.70;5.18;;;;;;;;;;5056961;28;20111;-74
2023/07/15 03:36:36;;;;;;;6.63;4.78;;;;;;;;;;5062008;28;20028;-75
2023/07/15 03:39:02;;;;;;;6.07;5.55;;;;;;;;;;5059615;28;20104;-76
2023/07/15 03:41:27;;;;;;;6.35;5.45;;;;;;;;;;5058477;28;20021;-75
2023/07/15 03:43:53;;;;;;;7.03;5.30;;;;;;;;;;5047972;28;20459;-76
2023/07/15 03:46:18;;;;;;;7.05;5.43;;;;;;;;;;5050179;28;20112;-75
2023/07/15 03:48:43;;;;;;;5.72;5.20;;;;;;;;;;5047219;28;20032;-75
2023/07/15 03:51:09;;;;;;;6.93;5.63;;;;;;;;;;5047543;28;20494;-74
2023/07/15 03:53:34;;;;;;;8.80;5.75;;;;;;;;;;5049841;28;20611;-74
2023/07/15 03:56:00;;;;;;;8.85;5.40;;;;;;;;;;5055915;28;20028;-76
2023/07/15 03:58:25;;;;;;;9.40;5.00;;;;;;;;;;5057709;28;20024;-78
2023/07/15 04:00:50;;;;;;;8.23;5.05;;;;;;;;;;5057988;28;20020;-76
2023/07/15 04:03:16;;;;;;;7.40;4.70;;;;;;;;;;5058565;28;20150;-77
2023/07/15 04:05:42;;;;;;;5.30;4.80;;;;;;;;;;5058549;28;20032;-76
2023/07/15 04:08:07;;;;;;;10.18;5.10;;;;;;;;;;5052567;28;20119;-76
2023/07/15 04:10:32;;;;;;;5.13;4.53;;;;;;;;;;5056456;28;20456;-77
2023/07/15 04:12:58;;;;;;;5.97;5.38;;;;;;;;;;5051546;28;20037;-76
2023/07/15 04:15:23;;;;;;;6.40;5.13;;;;;;;;;;5053927;28;20025;-75
2023/07/15 04:17:48;;;;;;;7.15;5.10;;;;;;;;;;5058736;28;20063;-77
2023/07/15 04:20:17;;;;;;;8.55;5.35;;;;;;;;;;5056781;28;20037;-77
2023/07/15 04:22:42;;;;;;;7.03;5.10;;;;;;;;;;5058328;28;20040;-77
2023/07/15 04:25:10;;;;;;;6.25;5.15;;;;;;;;;;5058411;28;20030;-77
2023/07/15 04:27:35;;;;;;;8.73;5.75;;;;;;;;;;5056884;28;20300;-76
2023/07/15 04:30:03;;;;;;;5.38;4.88;;;;;;;;;;5056893;28;20024;-76
2023/07/15 04:32:28;;;;;;;6.28;4.80;;;;;;;;;;5055808;28;20345;-76
2023/07/15 04:34:53;;;;;;;5.90;5.30;;;;;;;;;;5052175;28;20024;-77
2023/07/15 04:37:20;;;;;;;6.65;5.93;;;;;;;;;;5049927;28;20509;-77
2023/07/15 04:39:45;;;;;;;6.75;5.07;;;;;;;;;;5060436;28;20046;-76
2023/07/15 04:42:10;;;;;;;6.07;5.47;;;;;;;;;;5074031;28;20040;-76
2023/07/15 04:44:36;;;;;;;11.23;5.78;;;;;;;;;;5056292;28;20064;-77
2023/07/15 04:47:01;;;;;;;11.55;5.97;;;;;;;;;;5054960;28;20016;-75
2023/07/15 04:49:26;;;;;;;7.88;6.30;;;;;;;;;;5055738;28;20044;-76
2023/07/15 04:51:52;;;;;;;7.55;6.75;;;;;;;;;;5049585;28;20091;-77
2023/07/15 04:54:17;;;;;;;6.45;5.85;;;;;;;;;;5048444;28;20102;-74
2023/07/15 04:56:43;;;;;;;6.63;5.78;;;;;;;;;;5048835;28;20051;-74
2023/07/15 04:59:08;;;;;;;7.22;6.55;;;;;;;;;;5046705;28;20090;-76
2023/07/15 05:01:34;;;;;;;6.95;6.30;;;;;;;;;;5048376;28;20097;-75
2023/07/15 05:04:01;;;;;;;7.15;6.53;;;;;;;;;;5051767;28;20021;-76
2023/07/15 05:06:27;;;;;;;9.00;6.25;;;;;;;;;;5053251;28;20472;-76
2023/07/15 05:08:52;;;;;;;6.95;6.32;;;;;;;;;;5056117;28;20076;-75
2023/07/15 05:11:19;;;;;;;6.70;5.85;;;;;;;;;;5051637;28;20039;-74
2023/07/15 05:13:44;;;;;;;8.27;6.30;;;;;;;;;;5048160;28;20029;-75
2023/07/15 05:16:10;;;;;;;7.60;6.53;;;;;;;;;;5056587;28;20070;-74
2023/07/15 05:18:35;;;;;;;6.78;5.80;;;;;;;;;;5054795;28;20312;-74
2023/07/15 05:21:01;;;;;;;12.93;6.90;;;;;;;;;;5050840;28;20029;-73
2023/07/15 05:23:31;;;;;;;7.05;6.03;;;;;;;;;;5048012;28;20031;-74
2023/07/15 05:25:56;;;;;;;7.18;6.50;;;;;;;;;;5052930;28;20029;-74
2023/07/15 05:28:21;;;;;;;8.82;6.60;;;;;;;;;;5051692;28;20028;-76
2023/07/15 05:30:47;;;;;;;7.07;6.30;;;;;;;;;;5056813;28;20450;-76
2023/07/15 05:33:12;;;;;;;9.00;7.22;;;;;;;;;;5053959;28;21148;-74
2023/07/15 05:35:38;;;;;;;10.90;6.63;;;;;;;;;;5056276;28;20058;-72
2023/07/15 05:38:03;;;;;;;7.22;6.50;;;;;;;;;;5054917;28;20070;-73
2023/07/15 05:40:28;;;;;;;8.45;6.43;;;;;;;;;;5048865;28;20027;-74
2023/07/15 05:42:54;;;;;;;7.55;6.43;;;;;;;;;;5048018;28;20039;-74
2023/07/15 05:45:19;;;;;;;7.25;6.55;;;;;;;;;;5047912;28;20039;-73
2023/07/15 05:47:44;;;;;;;7.10;6.03;;;;;;;;;;5054753;28;20420;-72
2023/07/15 05:50:10;;;;;;;7.07;5.90;;;;;;;;;;5055590;28;20035;-74
2023/07/15 05:52:35;;;;;;;7.43;6.13;;;;;;;;;;5054540;28;20032;-75
2023/07/15 05:55:01;;;;;;;7.60;6.57;;;;;;;;;;5055194;28;20024;-76
2023/07/15 05:57:26;;;;;;;8.27;6.13;;;;;;;;;;5047022;28;20119;-76
2023/07/15 05:59:52;;;;;;;6.85;6.25;;;;;;;;;;5047979;28;20040;-80
2023/07/15 06:02:18;;;;;;;7.35;6.55;;;;;;;;;;5056150;28;20449;-82
2023/07/15 06:04:43;;;;;;;6.45;5.82;;;;;;;;;;5053185;28;20020;-79
2023/07/15 06:07:09;;;;;;;7.65;5.80;;;;;;;;;;5049903;28;20123;-81
2023/07/15 06:09:34;;;;;;;8.43;6.40;;;;;;;;;;5045931;28;20028;-77
2023/07/15 06:11:59;;;;;;;7.78;6.20;;;;;;;;;;5050799;28;20055;-76
2023/07/15 06:14:25;;;;;;;9.95;6.57;;;;;;;;;;5052296;28;20040;-77
2023/07/15 06:16:50;;;;;;;9.30;6.82;;;;;;;;;;5048559;28;20049;-76
2023/07/15 06:19:15;;;;;;;7.40;6.25;;;;;;;;;;5047809;28;20090;-77
2023/07/15 06:21:41;;;;;;;6.80;6.15;;;;;;;;;;5046056;28;20020;-77
2023/07/15 06:24:07;;;;;;;7.68;6.40;;;;;;;;;;5045424;28;20032;-76
2023/07/15 06:26:32;;;;;;;6.32;5.72;;;;;;;;;;5046361;28;20423;-77
2023/07/15 06:28:59;;;;;;;7.85;6.22;;;;;;;;;;5046760;28;20434;-74
2023/07/15 06:31:24;;;;;;;10.18;6.13;;;;;;;;;;5051488;28;20051;-75
2023/07/15 06:33:50;;;;;;;7.40;5.93;;;;;;;;;;5055385;28;20060;-75
2023/07/15 06:36:15;;;;;;;8.43;6.05;;;;;;;;;;5060188;28;20114;-75
2023/07/15 06:38:40;;;;;;;10.25;6.28;;;;;;;;;;5060204;28;20420;-75
2023/07/15 06:41:06;;;;;;;7.03;6.15;;;;;;;;;;5063859;28;20036;-76
2023/07/15 06:43:31;;;;;;;7.25;6.15;;;;;;;;;;5059128;28;20516;-75
2023/07/15 06:45:57;;;;;;;7.53;5.70;;;;;;;;;;5054941;28;20036;-76
2023/07/15 06:48:22;;;;;;;6.55;5.88;;;;;;;;;;5063236;28;20347;-77
2023/07/15 06:50:48;;;;;;;6.47;5.88;;;;;;;;;;5058764;28;20035;-76
2023/07/15 06:53:13;;;;;;;10.63;6.65;;;;;;;;;;5060663;28;20044;-75
2023/07/15 06:55:39;;;;;;;8.25;7.05;;;;;;;;;;5061775;28;20024;-75
2023/07/15 06:58:04;;;;;;;7.35;6.65;;;;;;;;;;5050787;28;20027;-75
2023/07/15 07:00:29;;;;;;;6.57;5.78;;;;;;;;;;5050537;28;20478;-76
2023/07/15 07:02:55;;;;;;;7.28;5.78;;;;;;;;;;5049430;28;20395;-77
2023/07/15 07:05:20;;;;;;;11.93;6.57;;;;;;;;;;5048657;28;20035;-76
2023/07/15 07:07:46;;;;;;;7.20;5.78;;;;;;;;;;5049142;28;20099;-78
2023/07/15 07:10:12;;;;;;;6.35;5.80;;;;;;;;;;5049408;28;20025;-76
2023/07/15 07:12:38;;;;;;;6.57;5.93;;;;;;;;;;5049005;28;20041;-76
2023/07/15 07:15:03;;;;;;;8.73;6.47;;;;;;;;;;5049663;28;20135;-75
2023/07/15 07:17:29;;;;;;;11.35;5.78;;;;;;;;;;5050741;28;20355;-75
2023/07/15 07:19:54;;;;;;;9.15;6.05;;;;;;;;;;5049388;28;20029;-76
2023/07/15 07:22:20;;;;;;;7.38;5.28;;;;;;;;;;5048934;28;20028;-77
2023/07/15 07:24:46;;;;;;;10.20;5.40;;;;;;;;;;5048340;28;20159;-78
2023/07/15 07:27:12;;;;;;;5.85;5.35;;;;;;;;;;5048933;28;20016;-76
2023/07/15 07:29:37;;;;;;;5.63;4.70;;;;;;;;;;5049140;28;20112;-77
2023/07/15 07:32:03;;;;;;;5.97;5.43;;;;;;;;;;5050072;28;20089;-76
2023/07/15 07:34:29;;;;;;;8.30;5.50;;;;;;;;;;5050452;28;20041;-76
2023/07/15 07:36:55;;;;;;;7.15;5.20;;;;;;;;;;5062086;28;20020;-75
2023/07/15 07:39:20;;;;;;;5.78;5.28;;;;;;;;;;5060655;28;20360;-75
2023/07/15 07:41:45;;;;;;;5.97;5.43;;;;;;;;;;5059910;28;20136;-75
2023/07/15 07:44:11;;;;;;;5.95;5.43;;;;;;;;;;5059066;28;20032;-78
2023/07/15 07:46:36;;;;;;;5.82;5.32;;;;;;;;;;5058387;28;20028;-76
2023/07/15 07:49:02;;;;;;;5.95;5.30;;;;;;;;;;5059438;28;20117;-76
2023/07/15 07:51:27;;;;;;;5.85;5.20;;;;;;;;;;5059403;28;20024;-76
2023/07/15 07:53:54;;;;;;;5.55;4.90;;;;;;;;;;5057247;28;20086;-74
2023/07/15 07:56:19;;;;;;;7.65;5.30;;;;;;;;;;5057046;28;20036;-77
2023/07/15 07:58:45;;;;;;;8.43;5.57;;;;;;;;;;5062260;28;20027;-75
2023/07/15 08:01:11;;;;;;;5.85;4.90;;;;;;;;;;5059672;28;20066;-76
2023/07/15 08:03:36;;;;;;;5.80;4.88;;;;;;;;;;5060501;28;20758;-76
2023/07/15 08:06:04;;;;;;;6.53;5.80;;;;;;;;;;5058816;28;20021;-78
2023/07/15 08:08:29;;;;;;;6.38;5.03;;;;;;;;;;5056247;28;20136;-77
2023/07/15 08:10:55;;;;;;;6.13;5.25;;;;;;;;;;5050098;28;20107;-76
2023/07/15 08:13:20;;;;;;;5.82;5.32;;;;;;;;;;5049538;28;20028;-76
2023/07/15 08:15:45;;;;;;;5.70;4.85;;;;;;;;;;5048202;28;20451;-76
2023/07/15 08:18:11;;;;;;;7.53;6.10;;;;;;;;;;5049144;28;20020;-74
2023/07/15 08:20:38;;;;;;;7.13;5.40;;;;;;;;;;5048157;28;20024;-75
2023/07/15 08:23:03;;;;;;;10.27;5.18;;;;;;;;;;5048818;28;20036;-76
2023/07/15 08:25:29;;;;;;;6.38;5.30;;;;;;;;;;5048524;28;20028;-75
2023/07/15 08:27:54;;;;;;;11.23;5.40;;;;;;;;;;5048366;28;20062;-76
2023/07/15 08:30:20;;;;;;;5.55;4.97;;;;;;;;;;5048018;28;20017;-76
2023/07/15 08:32:46;;;;;;;6.07;5.25;;;;;;;;;;5046472;28;20116;-77
2023/07/15 08:35:11;;;;;;;6.07;5.05;;;;;;;;;;5047994;28;21052;-75
2023/07/15 08:37:36;;;;;;;5.55;4.57;;;;;;;;;;5047400;28;20016;-76
2023/07/15 08:40:03;;;;;;;6.90;5.00;;;;;;;;;;5047411;28;20069;-75
2023/07/15 08:42:29;;;;;;;6.25;4.93;;;;;;;;;;5047924;28;20046;-76
2023/07/15 08:44:55;;;;;;;5.45;4.95;;;;;;;;;;5047917;28;20033;-79
2023/07/15 08:47:21;;;;;;;6.05;5.38;;;;;;;;;;5048207;28;20051;-77
2023/07/15 08:49:48;;;;;;;5.07;4.68;;;;;;;;;;5047397;28;20021;-75
2023/07/15 08:52:14;;;;;;;5.25;4.72;;;;;;;;;;5046660;28;20032;-74
2023/07/15 08:54:40;;;;;;;9.02;4.28;;;;;;;;;;5045040;28;20024;-73
2023/07/15 08:57:07;;;;;;;5.70;5.13;;;;;;;;;;5046985;28;20063;-76
2023/07/15 08:59:32;;;;;;;4.72;4.32;;;;;;;;;;5048494;28;20039;-76
2023/07/15 09:01:59;;;;;;;5.40;4.28;;;;;;;;;;5047628;28;20352;-74
2023/07/15 09:04:25;;;;;;;4.55;4.15;;;;;;;;;;5048009;28;20081;-75
2023/07/15 09:06:52;;;;;;;6.10;4.90;;;;;;;;;;5046642;28;20378;-76
2023/07/15 09:09:17;;;;;;;5.78;5.20;;;;;;;;;;5047515;28;20503;-75
2023/07/15 09:11:43;;;;;;;5.85;4.95;;;;;;;;;;5047486;28;20039;-75
2023/07/15 09:14:15;;;;;;;6.68;4.70;;;;;;;;;;5054361;28;20564;-74
2023/07/15 09:16:41;;;;;;;5.05;4.40;;;;;;;;;;5058238;28;20033;-73
2023/07/15 09:19:06;;;;;;;5.20;4.70;;;;;;;;;;5058832;28;20032;-75
2023/07/15 09:21:32;;;;;;;6.15;4.55;;;;;;;;;;5060486;28;20013;-75
2023/07/15 09:24:00;;;;;;;5.25;4.70;;;;;;;;;;5059120;28;20038;-77
2023/07/15 09:26:25;;;;;;;4.88;4.45;;;;;;;;;;5060393;28;20024;-76
2023/07/15 09:28:51;;;;;;;7.40;4.22;;;;;;;;;;5059907;28;20032;-75
2023/07/15 09:31:23;;;;;;;7.57;4.30;;;;;;;;;;5060126;28;20072;-76
2023/07/15 09:33:49;;;;;;;5.13;4.63;;;;;;;;;;5058747;28;20029;-77
2023/07/15 09:36:14;;;;;;;5.15;4.15;;;;;;;;;;5059507;28;20036;-75
2023/07/15 09:38:39;;;;;;;5.03;4.18;;;;;;;;;;5059784;28;20032;-75
2023/07/15 09:41:11;;;;;;;5.13;4.53;;;;;;;;;;5057655;28;20035;-74
2023/07/15 09:43:57;;;;;;;4.45;4.05;;;;;;;;;;5059821;28;20060;-76
2023/07/15 09:46:22;;;;;;;5.38;4.90;;;;;;;;;;5059521;28;20044;-76
2023/07/15 09:48:48;;;;;;;5.25;4.55;;;;;;;;;;5060059;28;20029;-75
2023/07/15 09:51:15;;;;;;;9.95;5.07;;;;;;;;;;5061152;28;20040;-74
2023/07/15 09:53:53;;;;;;;5.25;4.72;;;;;;;;;;5058680;28;20090;-75
2023/07/15 09:56:18;;;;;;;;;;;;;;;;;;5057806;28;20111;-73
2023/07/15 09:58:45;;;;;;;6.33;4.90;;;;;;;;;;5057497;28;20419;-75
2023/07/15 10:01:14;;;;;;;9.60;5.43;;;;;;;;;;5054291;28;20752;-77
2023/07/15 10:03:43;;;;;;;8.65;5.32;;;;;;;;;;5047604;28;20036;-75
2023/07/15 10:06:09;;;;;;;5.03;4.55;;;;;;;;;;5045943;28;20048;-73
2023/07/15 10:08:35;;;;;;;9.48;5.25;;;;;;;;;;5050517;28;20055;-75
2023/07/15 10:11:01;;;;;;;6.00;5.20;;;;;;;;;;5051562;28;20016;-75
2023/07/15 10:13:27;;;;;;;6.07;5.20;;;;;;;;;;5052286;28;21101;-75
2023/07/15 10:15:52;;;;;;;7.35;5.15;;;;;;;;;;5049667;28;20063;-75
2023/07/15 10:18:19;;;;;;;5.93;5.43;;;;;;;;;;5050515;28;20137;-76
2023/07/15 10:20:58;;;;;;;5.28;4.78;;;;;;;;;;5059260;28;20031;-76
2023/07/15 10:23:23;;;;;;;;;;;;;;;;;;5061276;28;20025;-76
2023/07/15 10:25:56;;;;;;;7.97;4.93;;;;;;;;;;5062899;28;19922;-76
2023/07/15 10:28:22;;;;;;;7.13;5.68;;;;;;;;;;5057471;28;20039;-75
2023/07/15 10:31:09;;;;;;;5.88;5.00;;;;;;;;;;5063693;28;20993;-75
2023/07/15 10:33:54;;;;;;;5.78;5.20;;;;;;;;;;5064029;28;20968;-75
2023/07/15 10:36:36;;;;;;;5.78;4.90;;;;;;;;;;5062856;28;20035;-74
2023/07/15 10:39:17;;;;;;;5.93;4.95;;;;;;;;;;5061573;28;20111;-75
2023/07/15 10:41:44;;;;;;;5.13;4.72;;;;;;;;;;5063552;28;20131;-74
2023/07/15 10:44:22;;;;;;;5.85;5.28;;;;;;;;;;5064005;28;20036;-76
2023/07/15 10:46:50;;;;;;;8.70;4.88;;;;;;;;;;5063197;28;20027;-78
2023/07/15 10:49:17;;;;;;;5.22;4.78;;;;;;;;;;5061541;28;20515;-75
2023/07/15 10:51:43;;;;;;;6.57;4.90;;;;;;;;;;5061092;28;20021;-75
2023/07/15 10:54:08;;;;;;;6.07;4.85;;;;;;;;;;5061782;28;20431;-75
2023/07/15 10:56:34;;;;;;;6.72;4.70;;;;;;;;;;5057786;28;20029;-76
2023/07/15 10:58:59;;;;;;;5.63;5.00;;;;;;;;;;5062690;28;20027;-75
2023/07/15 11:01:24;;;;;;;5.18;4.63;;;;;;;;;;5062752;28;20043;-76
2023/07/15 11:03:50;;;;;;;7.00;5.10;;;;;;;;;;5060412;28;21270;-76
2023/07/15 11:06:16;;;;;;;6.97;5.00;;;;;;;;;;5060872;28;20089;-74
2023/07/15 11:08:42;;;;;;;5.32;4.85;;;;;;;;;;5060113;28;20364;-78
2023/07/15 11:11:12;;;;;;;6.00;4.40;;;;;;;;;;5062387;28;20048;-76
2023/07/15 11:13:38;;;;;;;6.00;4.68;;;;;;;;;;5060672;28;20386;-75
2023/07/15 11:16:04;;;;;;;5.30;4.80;;;;;;;;;;5062427;28;20020;-76
2023/07/15 11:18:29;;;;;;;6.13;5.20;;;;;;;;;;5061966;28;20032;-75
2023/07/15 11:20:55;;;;;;;5.60;4.70;;;;;;;;;;5062112;28;20441;-77
2023/07/15 11:23:21;;;;;;;6.28;4.78;;;;;;;;;;5064670;28;20076;-76
2023/07/15 11:25:46;;;;;;;7.55;4.95;;;;;;;;;;5064217;28;20129;-77
2023/07/15 11:28:12;;;;;;;4.88;4.47;;;;;;;;;;5061957;28;20021;-76
2023/07/15 11:30:38;;;;;;;5.38;4.88;;;;;;;;;;5062960;28;20025;-78
2023/07/15 11:33:04;;;;;;;5.22;4.70;;;;;;;;;;5062973;28;20055;-77
2023/07/15 11:35:31;;;;;;;5.15;4.65;;;;;;;;;;5063004;28;20055;-78
2023/07/15 11:37:56;;;;;;;7.55;5.43;;;;;;;;;;5064293;28;20043;-76
2023/07/15 11:40:21;;;;;;;6.95;4.93;;;;;;;;;;5063850;28;20107;-77
2023/07/15 11:42:48;;;;;;;7.25;6.55;;;;;;;;;;5063495;28;20348;-74
2023/07/15 11:45:13;;;;;;;5.45;4.95;;;;;;;;;;5063169;28;20347;-74
2023/07/15 11:47:40;;;;;;;5.93;4.55;;;;;;;;;;5063554;28;20024;-80
2023/07/15 11:50:10;;;;;;;5.50;5.00;;;;;;;;;;5063292;28;20017;-76
2023/07/15 11:52:42;;;;;;;5.75;4.25;;;;;;;;;;5062945;28;20029;-76
2023/07/15 11:55:08;;;;;;;5.47;4.57;;;;;;;;;;5063781;28;20030;-77
2023/07/15 11:57:40;;;;;;;5.28;4.78;;;;;;;;;;5063495;28;20032;-77
2023/07/15 12:00:08;;;;;;;8.75;4.97;;;;;;;;;;5063620;28;20020;-76
2023/07/15 12:02:34;;;;;;;4.95;4.53;;;;;;;;;;5062354;28;20484;-76
2023/07/15 12:04:59;;;;;;;4.85;4.45;;;;;;;;;;5062071;28;20035;-78
2023/07/15 12:07:24;;;;;;;7.13;4.57;;;;;;;;;;5061874;28;20171;-76
2023/07/15 12:10:04;;;;;;;6.47;4.88;;;;;;;;;;5062679;28;20112;-77
2023/07/15 12:12:29;;;;;;;6.40;4.63;;;;;;;;;;5061959;28;20090;-77
2023/07/15 12:14:54;;;;;;;6.40;4.10;;;;;;;;;;5061478;28;20027;-77
2023/07/15 12:17:20;;;;;;;5.30;4.70;;;;;;;;;;5061517;28;20036;-77
2023/07/15 12:19:45;;;;;;;5.68;4.85;;;;;;;;;;5060669;28;20031;-78
2023/07/15 12:22:10;;;;;;;5.22;4.65;;;;;;;;;;5060781;28;20028;-77
2023/07/15 12:24:36;;;;;;;6.93;4.90;;;;;;;;;;5062297;28;20024;-75
2023/07/15 12:27:02;;;;;;;5.25;4.72;;;;;;;;;;5063221;28;20081;-76
2023/07/15 12:29:27;;;;;;;5.80;4.55;;;;;;;;;;5061310;28;20109;-76
2023/07/15 12:31:52;;;;;;;4.90;4.40;;;;;;;;;;5062415;28;20024;-78
2023/07/15 12:34:18;;;;;;;4.55;4.25;;;;;;;;;;5059383;28;20055;-76
2023/07/15 12:36:44;;;;;;;7.05;4.10;;;;;;;;;;5061380;28;20032;-76
2023/07/15 12:39:10;;;;;;;6.95;5.05;;;;;;;;;;5062622;28;20565;-75
2023/07/15 12:41:36;;;;;;;6.85;4.85;;;;;;;;;;5061193;28;20028;-74
2023/07/15 12:44:01;;;;;;;5.38;4.88;;;;;;;;;;5061257;28;20043;-76
2023/07/15 12:46:26;;;;;;;5.53;4.72;;;;;;;;;;5061125;28;20033;-74
2023/07/15 12:48:53;;;;;;;5.00;4.60;;;;;;;;;;5062664;28;20029;-77
2023/07/15 12:51:18;;;;;;;5.30;4.80;;;;;;;;;;5061912;28;20501;-77
2023/07/15 12:53:44;;;;;;;8.15;5.10;;;;;;;;;;5062496;28;20041;-76
2023/07/15 12:56:13;;;;;;;5.07;4.65;;;;;;;;;;5061687;28;20024;-75
2023/07/15 12:58:38;;;;;;;7.00;4.70;;;;;;;;;;5061357;28;20023;-77
2023/07/15 13:01:04;;;;;;;6.40;5.03;;;;;;;;;;5060016;28;20025;-76
2023/07/15 13:03:29;;;;;;;5.70;5.18;;;;;;;;;;5061296;28;20424;-76
2023/07/15 13:05:55;;;;;;;5.32;4.38;;;;;;;;;;5060863;28;20355;-77
2023/07/15 13:08:20;;;;;;;9.43;5.53;;;;;;;;;;5060670;28;20080;-75
2023/07/15 13:10:46;;;;;;;7.50;5.07;;;;;;;;;;5059282;28;20036;-77
2023/07/15 13:13:11;;;;;;;8.13;5.00;;;;;;;;;;5059319;28;20032;-75
2023/07/15 13:15:36;;;;;;;6.75;5.22;;;;;;;;;;5055976;28;20454;-78
2023/07/15 13:18:02;;;;;;;6.47;4.82;;;;;;;;;;5049980;28;20071;-77
2023/07/15 13:20:27;;;;;;;9.85;5.25;;;;;;;;;;5060757;28;20023;-76
2023/07/15 13:22:53;;;;;;;5.93;5.32;;;;;;;;;;5059960;28;20020;-77
2023/07/15 13:25:18;;;;;;;9.52;4.55;;;;;;;;;;5060033;28;20036;-76
2023/07/15 13:27:43;;;;;;;5.47;4.97;;;;;;;;;;5058782;28;20108;-76
2023/07/15 13:30:10;;;;;;;5.40;4.90;;;;;;;;;;5057570;28;20043;-74
2023/07/15 13:32:35;;;;;;;6.43;4.82;;;;;;;;;;5058017;28;20040;-77
2023/07/15 13:35:01;;;;;;;14.05;5.30;;;;;;;;;;5060235;28;20359;-75
2023/07/15 13:37:26;;;;;;;6.22;5.03;;;;;;;;;;5059371;28;20028;-77
2023/07/15 13:39:52;;;;;;;5.72;4.70;;;;;;;;;;5055154;28;20359;-78
2023/07/15 13:42:19;;;;;;;6.82;4.93;;;;;;;;;;5051185;28;20040;-75
2023/07/15 13:44:45;;;;;;;7.15;5.28;;;;;;;;;;5058984;28;20481;-77
2023/07/15 13:47:10;;;;;;;7.72;4.90;;;;;;;;;;5058680;28;20055;-75
2023/07/15 13:49:35;;;;;;;5.35;4.75;;;;;;;;;;5056710;28;20027;-74
2023/07/15 13:52:01;;;;;;;4.85;4.45;;;;;;;;;;5057787;28;20039;-76
2023/07/15 13:54:27;;;;;;;5.35;4.85;;;;;;;;;;5057360;28;20475;-75
2023/07/15 13:56:53;;;;;;;8.50;5.15;;;;;;;;;;5060352;28;20025;-77
2023/07/15 13:59:18;;;;;;;7.30;5.53;;;;;;;;;;5057159;28;20039;-74
2023/07/15 14:01:44;;;;;;;7.38;4.63;;;;;;;;;;5060177;28;20042;-81
2023/07/15 14:04:10;;;;;;;7.13;5.10;;;;;;;;;;5061114;28;20028;-76
2023/07/15 14:06:35;;;;;;;5.47;4.97;;;;;;;;;;5060321;28;20047;-78
2023/07/15 14:09:01;;;;;;;6.70;4.53;;;;;;;;;;5056334;28;20041;-75
2023/07/15 14:11:26;;;;;;;7.75;5.18;;;;;;;;;;5061274;28;20027;-77
2023/07/15 14:13:52;;;;;;;6.35;5.20;;;;;;;;;;5059731;28;20129;-79
2023/07/15 14:16:17;;;;;;;5.63;4.78;;;;;;;;;;5058063;28;20043;-77
2023/07/15 14:18:43;;;;;;;6.47;4.75;;;;;;;;;;5060463;28;20055;-76
2023/07/15 14:21:08;;;;;;;5.53;4.97;;;;;;;;;;5058625;28;20028;-76
2023/07/15 14:23:34;;;;;;;5.47;4.97;;;;;;;;;;5057700;28;20059;-74
2023/07/15 14:26:00;;;;;;;5.57;4.53;;;;;;;;;;5058390;28;20428;-75
2023/07/15 14:28:25;;;;;;;5.68;4.97;;;;;;;;;;5059296;28;20112;-76
2023/07/15 14:30:51;;;;;;;6.30;4.97;;;;;;;;;;5059654;28;20051;-78
2023/07/15 14:33:16;;;;;;;7.20;4.70;;;;;;;;;;5056775;28;20065;-76
2023/07/15 14:35:41;;;;;;;7.88;5.10;;;;;;;;;;5059077;28;20036;-74